createdAt,value
2022-10-07T00:00:57.128Z,100.00
2022-10-07T00:03:26.662Z,100.00
2022-10-07T00:06:02.005Z,100.00
2022-10-07T00:08:31.624Z,100.00
2022-10-07T00:10:59.781Z,100.00
2022-10-07T00:13:28.692Z,100.00
2022-10-07T00:16:04.675Z,100.00
2022-10-07T00:18:32.450Z,100.00
2022-10-07T00:21:04.002Z,100.00
2022-10-07T00:23:33.119Z,100.00
2022-10-07T00:26:02.002Z,100.00
2022-10-07T00:28:30.420Z,100.00
2022-10-07T00:30:59.153Z,100.00
2022-10-07T00:33:27.607Z,100.00
2022-10-07T00:35:55.273Z,100.00
2022-10-07T00:38:23.148Z,100.00
2022-10-07T00:40:52.441Z,100.00
2022-10-07T00:43:21.481Z,100.00
2022-10-07T00:45:49.659Z,100.00
2022-10-07T00:48:22.053Z,100.00
2022-10-07T00:50:50.658Z,100.00
2022-10-07T00:53:18.709Z,100.00
2022-10-07T00:55:46.580Z,100.00
2022-10-07T00:58:15.814Z,100.00
2022-10-07T01:00:43.725Z,100.00
2022-10-07T01:03:11.749Z,100.00
2022-10-07T01:05:39.339Z,100.00
2022-10-07T01:08:07.134Z,100.00
2022-10-07T01:10:40.653Z,100.00
2022-10-07T01:13:15.284Z,100.00
2022-10-07T01:15:51.864Z,100.00
2022-10-07T01:18:22.784Z,100.00
2022-10-07T01:20:54.921Z,100.00
2022-10-07T01:23:42.264Z,100.00
2022-10-07T01:26:33.184Z,100.00
2022-10-07T01:29:04.523Z,100.00
2022-10-07T01:31:35.199Z,100.00
2022-10-07T01:34:04.755Z,100.00
2022-10-07T01:36:33.996Z,100.00
2022-10-07T01:39:05.425Z,100.00
2022-10-07T01:41:35.551Z,100.00
2022-10-07T01:44:04.139Z,100.00
2022-10-07T01:46:34.381Z,100.00
2022-10-07T01:49:02.299Z,100.00
2022-10-07T01:51:31.144Z,100.00
2022-10-07T01:54:04.002Z,100.00
2022-10-07T01:56:43.813Z,100.00
2022-10-07T01:59:30.091Z,100.00
2022-10-07T02:02:04.187Z,100.00
2022-10-07T02:04:41.727Z,100.00
2022-10-07T02:07:19.533Z,100.00
2022-10-07T02:09:50.843Z,100.00
2022-10-07T02:12:26.753Z,100.00
2022-10-07T02:14:58.015Z,100.00
2022-10-07T02:17:27.847Z,100.00
2022-10-07T02:19:57.362Z,100.00
2022-10-07T02:22:27.313Z,100.00
2022-10-07T02:24:59.101Z,100.00
2022-10-07T02:27:30.260Z,100.00
2022-10-07T02:30:03.323Z,100.00
2022-10-07T02:32:31.553Z,100.00
2022-10-07T02:35:03.124Z,100.00
2022-10-07T02:37:33.619Z,100.00
2022-10-07T02:40:07.077Z,100.00
2022-10-07T02:42:42.276Z,100.00
2022-10-07T02:45:15.954Z,100.00
2022-10-07T02:47:49.740Z,100.00
2022-10-07T02:50:22.529Z,100.00
2022-10-07T02:52:51.076Z,100.00
2022-10-07T02:55:22.715Z,100.00
2022-10-07T02:57:54.126Z,100.00
2022-10-07T03:00:21.954Z,100.00
2022-10-07T03:02:53.045Z,100.00
2022-10-07T03:05:21.924Z,100.00
2022-10-07T03:07:52.074Z,100.00
2022-10-07T03:10:19.689Z,100.00
2022-10-07T03:12:47.406Z,100.00
2022-10-07T03:15:16.536Z,100.00
2022-10-07T03:17:44.271Z,100.00
2022-10-07T03:20:15.534Z,100.00
2022-10-07T03:22:43.609Z,100.00
2022-10-07T03:25:12.229Z,100.00
2022-10-07T03:27:40.421Z,100.00
2022-10-07T03:30:09.645Z,100.00
2022-10-07T03:32:39.246Z,100.00
2022-10-07T03:35:07.923Z,100.00
2022-10-07T03:37:36.809Z,100.00
2022-10-07T03:40:05.261Z,100.00
2022-10-07T03:42:33.057Z,100.00
2022-10-07T03:45:01.197Z,100.00
2022-10-07T03:47:29.123Z,100.00
2022-10-07T03:49:58.409Z,100.00
2022-10-07T03:52:26.922Z,100.00
2022-10-07T03:54:56.418Z,100.00
2022-10-07T03:57:41.647Z,100.00
2022-10-07T04:00:10.413Z,100.00
2022-10-07T04:02:38.052Z,100.00
2022-10-07T04:05:07.864Z,100.00
2022-10-07T04:07:35.752Z,100.00
2022-10-07T04:10:03.500Z,100.00
2022-10-07T04:12:33.657Z,100.00
2022-10-07T04:15:01.877Z,100.00
2022-10-07T04:17:29.708Z,100.00
2022-10-07T04:19:58.016Z,100.00
2022-10-07T04:22:27.236Z,100.00
2022-10-07T04:25:14.309Z,100.00
2022-10-07T04:27:58.175Z,100.00
2022-10-07T04:30:27.683Z,100.00
2022-10-07T04:32:55.998Z,100.00
2022-10-07T04:35:24.600Z,100.00
2022-10-07T04:37:54.606Z,100.00
2022-10-07T04:40:23.961Z,100.00
2022-10-07T04:43:10.190Z,100.00
2022-10-07T04:45:38.186Z,100.00
2022-10-07T04:48:07.055Z,100.00
2022-10-07T04:50:36.102Z,100.00
2022-10-07T04:53:05.370Z,100.00
2022-10-07T04:55:37.382Z,100.00
2022-10-07T04:58:05.777Z,100.00
2022-10-07T05:00:33.648Z,100.00
2022-10-07T05:03:01.660Z,100.00
2022-10-07T05:05:30.112Z,100.00
2022-10-07T05:07:57.676Z,100.00
2022-10-07T05:10:26.736Z,100.00
2022-10-07T05:12:56.322Z,100.00
2022-10-07T05:15:24.663Z,100.00
2022-10-07T05:17:55.857Z,100.00
2022-10-07T05:20:23.679Z,100.00
2022-10-07T05:22:51.555Z,100.00
2022-10-07T05:25:20.123Z,100.00
2022-10-07T05:27:54.126Z,100.00
2022-10-07T05:30:22.664Z,100.00
2022-10-07T05:32:51.173Z,100.00
2022-10-07T05:35:18.908Z,100.00
2022-10-07T05:37:50.984Z,100.00
2022-10-07T05:40:18.890Z,100.00
2022-10-07T05:42:46.692Z,100.00
2022-10-07T05:45:15.737Z,100.00
2022-10-07T05:47:44.149Z,100.00
2022-10-07T05:50:12.157Z,100.00
2022-10-07T05:52:40.418Z,100.00
2022-10-07T05:55:09.999Z,100.00
2022-10-07T05:57:40.065Z,100.00
2022-10-07T06:00:09.444Z,100.00
2022-10-07T06:02:39.115Z,100.00
2022-10-07T06:05:07.794Z,100.00
2022-10-07T06:07:35.342Z,100.00
2022-10-07T06:10:20.534Z,100.00
2022-10-07T06:13:05.589Z,100.00
2022-10-07T06:15:33.296Z,100.00
2022-10-07T06:18:02.192Z,100.00
2022-10-07T06:20:29.854Z,100.00
2022-10-07T06:22:58.259Z,100.00
2022-10-07T06:25:26.133Z,100.00
2022-10-07T06:27:57.262Z,100.00
2022-10-07T06:30:26.931Z,100.00
2022-10-07T06:32:56.487Z,100.00
2022-10-07T06:35:25.626Z,100.00
2022-10-07T06:37:53.338Z,100.00
2022-10-07T06:40:20.900Z,100.00
2022-10-07T06:42:48.525Z,100.00
2022-10-07T06:45:16.997Z,100.00
2022-10-07T06:47:44.825Z,100.00
2022-10-07T06:50:12.967Z,100.00
2022-10-07T06:52:43.551Z,100.00
2022-10-07T06:55:11.510Z,100.00
2022-10-07T06:57:46.764Z,100.00
2022-10-07T07:00:15.575Z,100.00
2022-10-07T07:02:43.441Z,100.00
2022-10-07T07:05:15.458Z,100.00
2022-10-07T07:07:44.943Z,100.00
2022-10-07T07:10:13.462Z,100.00
2022-10-07T07:12:41.286Z,100.00
2022-10-07T07:15:10.258Z,100.00
2022-10-07T07:17:38.122Z,100.00
2022-10-07T07:20:06.280Z,100.00
2022-10-07T07:22:34.427Z,100.00
2022-10-07T07:25:09.919Z,100.00
2022-10-07T07:27:37.680Z,100.00
2022-10-07T07:30:06.708Z,100.00
2022-10-07T07:32:34.299Z,100.00
2022-10-07T07:35:04.422Z,100.00
2022-10-07T07:37:32.111Z,100.00
2022-10-07T07:39:59.822Z,100.00
2022-10-07T07:42:29.008Z,100.00
2022-10-07T07:44:59.332Z,100.00
2022-10-07T07:47:27.694Z,100.00
2022-10-07T07:49:55.502Z,100.00
2022-10-07T07:52:25.662Z,100.00
2022-10-07T07:54:57.957Z,100.00
2022-10-07T07:57:25.995Z,100.00
2022-10-07T07:59:55.196Z,100.00
2022-10-07T08:02:23.048Z,100.00
2022-10-07T08:04:53.823Z,98.33
2022-10-07T08:07:21.644Z,97.46
2022-10-07T08:09:49.621Z,98.37
2022-10-07T08:12:17.587Z,97.94
2022-10-07T08:14:45.319Z,96.67
2022-10-07T08:17:14.660Z,96.17
2022-10-07T08:19:42.372Z,98.06
2022-10-07T08:22:10.663Z,95.87
2022-10-07T08:24:38.407Z,96.93
2022-10-07T08:27:07.328Z,95.67
2022-10-07T08:29:35.049Z,94.84
2022-10-07T08:32:02.950Z,94.73
2022-10-07T08:34:36.454Z,93.75
2022-10-07T08:37:05.124Z,93.60
2022-10-07T08:39:33.907Z,94.39
2022-10-07T08:42:08.618Z,92.81
2022-10-07T08:44:39.089Z,91.81
2022-10-07T08:47:15.953Z,92.80
2022-10-07T08:49:54.590Z,92.05
2022-10-07T08:52:29.696Z,91.57
2022-10-07T08:54:57.915Z,92.00
2022-10-07T08:57:37.428Z,89.77
2022-10-07T09:00:07.694Z,89.98
2022-10-07T09:02:44.227Z,89.07
2022-10-07T09:05:21.964Z,88.85
2022-10-07T09:07:51.394Z,88.65
2022-10-07T09:10:28.825Z,87.37
2022-10-07T09:12:59.452Z,88.10
2022-10-07T09:15:35.464Z,87.44
2022-10-07T09:18:07.309Z,86.23
2022-10-07T09:20:40.002Z,86.56
2022-10-07T09:23:11.267Z,87.54
2022-10-07T09:25:41.513Z,86.76
2022-10-07T09:28:13.355Z,86.31
2022-10-07T09:30:42.363Z,85.77
2022-10-07T09:33:15.279Z,83.72
2022-10-07T09:35:47.116Z,83.99
2022-10-07T09:38:15.514Z,82.90
2022-10-07T09:40:58.629Z,84.09
2022-10-07T09:43:27.802Z,82.61
2022-10-07T09:45:57.106Z,82.18
2022-10-07T09:48:27.510Z,83.29
2022-10-07T09:51:13.966Z,81.04
2022-10-07T09:53:56.398Z,81.28
2022-10-07T09:56:34.388Z,77.75
2022-10-07T09:59:17.988Z,79.34
2022-10-07T10:01:50.410Z,78.67
2022-10-07T10:04:19.018Z,78.53
2022-10-07T10:06:49.227Z,77.77
2022-10-07T10:09:22.171Z,77.86
2022-10-07T10:12:03.202Z,76.80
2022-10-07T10:14:38.921Z,78.31
2022-10-07T10:17:06.754Z,76.03
2022-10-07T10:19:37.239Z,76.86
2022-10-07T10:22:06.952Z,77.18
2022-10-07T10:24:52.771Z,76.87
2022-10-07T10:27:24.264Z,76.06
2022-10-07T10:29:56.207Z,74.70
2022-10-07T10:32:32.215Z,75.27
2022-10-07T10:35:04.376Z,76.31
2022-10-07T10:37:47.875Z,76.52
2022-10-07T10:40:23.169Z,72.70
2022-10-07T10:42:59.256Z,73.05
2022-10-07T10:45:34.598Z,75.37
2022-10-07T10:48:13.443Z,75.36
2022-10-07T10:50:48.942Z,72.83
2022-10-07T10:53:27.375Z,73.08
2022-10-07T10:56:07.657Z,74.31
2022-10-07T10:58:47.026Z,71.18
2022-10-07T11:01:24.791Z,71.64
2022-10-07T11:04:10.757Z,71.65
2022-10-07T11:06:41.417Z,69.95
2022-10-07T11:09:15.718Z,70.13
2022-10-07T11:11:43.610Z,71.23
2022-10-07T11:14:14.935Z,70.76
2022-10-07T11:16:45.033Z,69.68
2022-10-07T11:19:16.798Z,69.00
2022-10-07T11:21:46.376Z,69.06
2022-10-07T11:24:17.047Z,68.37
2022-10-07T11:26:46.250Z,70.07
2022-10-07T11:29:20.527Z,70.75
2022-10-07T11:31:51.872Z,69.39
2022-10-07T11:34:24.452Z,68.96
2022-10-07T11:36:56.813Z,68.52
2022-10-07T11:39:25.715Z,68.63
2022-10-07T11:42:02.376Z,68.34
2022-10-07T11:44:33.149Z,67.43
2022-10-07T11:47:03.443Z,68.54
2022-10-07T11:49:33.560Z,67.25
2022-10-07T11:52:03.379Z,67.51
2022-10-07T11:54:39.242Z,67.64
2022-10-07T11:57:06.922Z,68.40
2022-10-07T11:59:43.815Z,67.96
2022-10-07T12:02:40.784Z,67.08
2022-10-07T12:05:43.514Z,67.35
2022-10-07T12:08:31.705Z,67.04
2022-10-07T12:11:44.716Z,66.62
2022-10-07T12:14:35.673Z,66.79
2022-10-07T12:17:19.543Z,66.77
2022-10-07T12:19:47.721Z,65.39
2022-10-07T12:22:19.542Z,65.22
2022-10-07T12:25:11.396Z,65.60
2022-10-07T12:27:47.265Z,67.30
2022-10-07T12:30:37.812Z,67.80
2022-10-07T12:33:16.064Z,66.45
2022-10-07T12:35:53.957Z,65.77
2022-10-07T12:38:24.908Z,65.83
2022-10-07T12:41:01.072Z,65.58
2022-10-07T12:43:35.485Z,63.59
2022-10-07T12:46:06.752Z,63.23
2022-10-07T12:48:40.442Z,64.05
2022-10-07T12:51:16.838Z,62.84
2022-10-07T12:53:45.906Z,62.88
2022-10-07T12:56:20.974Z,62.74
2022-10-07T12:59:46.628Z,63.67
2022-10-07T13:02:47.882Z,64.75
2022-10-07T13:05:49.815Z,62.94
2022-10-07T13:08:54.205Z,64.24
2022-10-07T13:11:59.821Z,65.51
2022-10-07T13:14:33.314Z,61.86
2022-10-07T13:17:19.538Z,62.41
2022-10-07T13:19:50.886Z,59.54
2022-10-07T13:22:20.674Z,60.69
2022-10-07T13:24:49.981Z,56.07
2022-10-07T13:27:20.048Z,54.81
2022-10-07T13:29:49.228Z,54.99
2022-10-07T13:32:19.032Z,54.42
2022-10-07T13:34:46.855Z,53.94
2022-10-07T13:37:29.162Z,52.18
2022-10-07T13:39:59.043Z,53.03
2022-10-07T13:42:29.088Z,52.80
2022-10-07T13:45:03.656Z,50.77
2022-10-07T13:47:33.970Z,50.09
2022-10-07T13:50:02.274Z,48.75
2022-10-07T13:52:36.799Z,50.43
2022-10-07T13:55:20.493Z,49.51
2022-10-07T13:57:49.157Z,48.77
2022-10-07T14:00:18.723Z,48.36
2022-10-07T14:02:46.900Z,49.95
2022-10-07T14:05:24.270Z,49.60
2022-10-07T14:07:54.825Z,49.53
2022-10-07T14:10:23.591Z,51.21
2022-10-07T14:12:52.676Z,49.63
2022-10-07T14:15:23.161Z,49.83
2022-10-07T14:17:54.652Z,49.45
2022-10-07T14:20:26.864Z,48.54
2022-10-07T14:22:56.527Z,49.82
2022-10-07T14:25:28.199Z,48.34
2022-10-07T14:28:07.552Z,50.45
2022-10-07T14:30:56.677Z,51.83
2022-10-07T14:33:49.681Z,50.50
2022-10-07T14:36:18.680Z,53.20
2022-10-07T14:38:49.537Z,51.01
2022-10-07T14:41:21.203Z,50.29
2022-10-07T14:43:50.737Z,51.80
2022-10-07T14:46:21.158Z,50.78
2022-10-07T14:48:49.616Z,48.10
2022-10-07T14:51:24.819Z,47.96
2022-10-07T14:53:55.102Z,46.97
2022-10-07T14:56:26.106Z,48.83
2022-10-07T14:58:54.107Z,46.84
2022-10-07T15:01:23.464Z,47.61
2022-10-07T15:03:51.242Z,47.95
2022-10-07T15:06:19.272Z,49.55
2022-10-07T15:08:47.068Z,51.05
2022-10-07T15:11:16.029Z,49.31
2022-10-07T15:13:46.480Z,51.68
2022-10-07T15:16:16.670Z,50.78
2022-10-07T15:18:51.855Z,49.58
2022-10-07T15:21:20.587Z,50.87
2022-10-07T15:23:51.355Z,53.59
2022-10-07T15:26:19.168Z,57.80
2022-10-07T15:28:51.445Z,53.65
2022-10-07T15:31:19.570Z,52.62
2022-10-07T15:33:48.754Z,54.55
2022-10-07T15:36:17.915Z,55.34
2022-10-07T15:38:45.502Z,54.74
2022-10-07T15:41:29.886Z,55.65
2022-10-07T15:43:58.686Z,55.69
2022-10-07T15:46:26.517Z,55.23
2022-10-07T15:48:57.082Z,56.34
2022-10-07T15:51:25.606Z,61.07
2022-10-07T15:53:53.502Z,61.27
2022-10-07T15:56:21.365Z,63.49
2022-10-07T15:58:49.008Z,63.66
2022-10-07T16:01:16.647Z,62.32
2022-10-07T16:03:47.940Z,65.31
2022-10-07T16:06:20.681Z,65.11
2022-10-07T16:08:48.556Z,64.97
2022-10-07T16:11:16.500Z,65.91
2022-10-07T16:13:49.586Z,72.64
2022-10-07T16:16:20.064Z,70.34
2022-10-07T16:18:49.425Z,69.77
2022-10-07T16:21:21.539Z,71.13
2022-10-07T16:23:51.001Z,69.49
2022-10-07T16:26:21.401Z,73.35
2022-10-07T16:29:19.612Z,74.98
2022-10-07T16:31:48.867Z,77.38
2022-10-07T16:34:17.742Z,79.29
2022-10-07T16:36:48.835Z,81.53
2022-10-07T16:39:21.878Z,80.15
2022-10-07T16:41:51.328Z,82.51
2022-10-07T16:44:24.065Z,80.79
2022-10-07T16:46:56.502Z,82.74
2022-10-07T16:53:06.578Z,82.81
2022-10-07T16:55:35.163Z,84.48
2022-10-07T16:58:02.761Z,87.43
2022-10-07T17:00:31.167Z,86.75
2022-10-07T17:02:59.129Z,86.79
2022-10-07T17:05:26.931Z,89.44
2022-10-07T17:07:54.541Z,88.09
2022-10-07T17:10:23.523Z,89.08
2022-10-07T17:12:56.062Z,89.31
2022-10-07T17:15:24.529Z,90.71
2022-10-07T17:17:53.583Z,91.39
2022-10-07T17:20:21.177Z,92.49
2022-10-07T17:22:49.524Z,92.21
2022-10-07T17:25:18.227Z,93.65
2022-10-07T17:27:48.689Z,94.03
2022-10-07T17:30:17.716Z,96.06
2022-10-07T17:32:45.433Z,96.75
2022-10-07T17:35:13.424Z,97.71
2022-10-07T17:54:08.332Z,100.00
2022-10-07T17:56:36.061Z,99.62
2022-10-07T17:59:05.283Z,98.85
2022-10-07T18:01:34.363Z,99.40
2022-10-07T18:04:03.794Z,100.00
2022-10-07T18:06:33.717Z,98.47
2022-10-07T18:09:04.208Z,99.88
2022-10-07T18:11:50.779Z,100.00
2022-10-07T18:14:39.921Z,99.38
2022-10-07T18:17:13.105Z,100.00
2022-10-07T18:19:41.367Z,98.92
2022-10-07T18:22:10.149Z,100.00
2022-10-07T18:24:39.395Z,100.00
2022-10-07T18:27:11.139Z,100.00
2022-10-07T18:29:39.325Z,100.00
2022-10-07T18:32:07.529Z,100.00
2022-10-07T18:34:35.562Z,100.00
2022-10-07T18:37:03.426Z,100.00
2022-10-07T18:39:31.070Z,100.00
2022-10-07T18:42:00.260Z,100.00
2022-10-07T18:44:29.137Z,100.00
2022-10-07T18:46:57.234Z,100.00
2022-10-07T18:49:25.160Z,100.00
2022-10-07T18:51:53.158Z,100.00
2022-10-07T18:54:21.687Z,100.00
2022-10-07T18:56:51.956Z,100.00
2022-10-07T18:59:22.962Z,100.00
2022-10-07T19:02:00.382Z,100.00
2022-10-07T19:04:30.205Z,100.00
2022-10-07T19:06:58.049Z,100.00
2022-10-07T19:09:26.438Z,100.00
2022-10-07T19:11:54.988Z,100.00
2022-10-07T19:14:26.006Z,100.00
2022-10-07T19:16:54.439Z,100.00
2022-10-07T19:19:23.442Z,100.00
2022-10-07T19:21:58.428Z,100.00
2022-10-07T19:24:50.544Z,100.00
2022-10-07T19:27:18.430Z,100.00
2022-10-07T19:29:55.904Z,100.00
2022-10-07T19:32:24.386Z,100.00
2022-10-07T19:34:53.269Z,100.00
2022-10-07T19:37:21.196Z,100.00
2022-10-07T19:39:49.047Z,100.00
2022-10-07T19:42:22.223Z,100.00
2022-10-07T19:44:52.652Z,100.00
2022-10-07T19:47:20.358Z,100.00
2022-10-07T19:49:49.427Z,100.00
2022-10-07T19:52:17.956Z,100.00
2022-10-07T19:54:45.940Z,100.00
2022-10-07T19:57:13.964Z,100.00
2022-10-07T19:59:42.547Z,100.00
2022-10-07T20:05:53.886Z,100.00
2022-10-07T20:08:23.426Z,100.00
2022-10-07T20:10:55.375Z,100.00
2022-10-07T20:13:23.424Z,100.00
2022-10-07T20:15:51.152Z,100.00
2022-10-07T20:18:19.183Z,100.00
2022-10-07T20:20:47.176Z,100.00
2022-10-07T20:23:16.961Z,100.00
2022-10-07T20:26:48.802Z,100.00
2022-10-07T20:29:19.377Z,100.00
2022-10-07T20:31:50.740Z,100.00
2022-10-07T20:34:20.251Z,100.00
2022-10-07T20:36:50.361Z,100.00
2022-10-07T20:40:19.472Z,100.00
2022-10-07T20:42:48.907Z,100.00
2022-10-07T20:45:17.248Z,100.00
2022-10-07T20:47:46.142Z,100.00
2022-10-07T20:50:19.814Z,100.00
2022-10-07T20:52:48.287Z,100.00
2022-10-07T20:55:16.398Z,100.00
2022-10-07T20:57:48.601Z,100.00
2022-10-07T21:00:19.710Z,100.00
2022-10-07T21:02:53.216Z,100.00
2022-10-07T21:05:22.094Z,100.00
2022-10-07T21:07:54.403Z,100.00
2022-10-07T21:10:23.068Z,100.00
2022-10-07T21:12:52.052Z,100.00
2022-10-07T21:15:21.902Z,100.00
2022-10-07T21:17:50.143Z,100.00
2022-10-07T21:20:17.978Z,100.00
2022-10-07T21:22:45.956Z,100.00
2022-10-07T21:25:14.856Z,100.00
2022-10-07T21:27:43.029Z,100.00
2022-10-07T21:30:12.002Z,100.00
2022-10-07T21:32:41.429Z,100.00
2022-10-07T21:35:11.593Z,100.00
2022-10-07T21:37:41.693Z,100.00
2022-10-07T21:40:10.709Z,100.00
2022-10-07T21:42:40.264Z,100.00
2022-10-07T21:45:09.463Z,100.00
2022-10-07T21:47:38.445Z,100.00
2022-10-07T21:50:09.178Z,100.00
2022-10-07T21:52:37.842Z,100.00
2022-10-07T21:55:07.760Z,100.00
2022-10-07T21:57:38.233Z,100.00
2022-10-07T22:00:12.010Z,100.00
2022-10-07T22:02:40.099Z,100.00
2022-10-07T22:05:11.528Z,100.00
2022-10-07T22:08:08.925Z,100.00
2022-10-07T22:10:36.961Z,100.00
2022-10-07T22:13:06.649Z,100.00
2022-10-07T22:15:37.238Z,100.00
2022-10-07T22:18:05.179Z,100.00
2022-10-07T22:20:39.052Z,100.00
2022-10-07T22:23:08.872Z,100.00
2022-10-07T22:25:36.721Z,100.00
2022-10-07T22:28:04.921Z,100.00
2022-10-07T22:30:33.689Z,100.00
2022-10-07T22:33:01.537Z,100.00
2022-10-07T22:35:31.203Z,100.00
2022-10-07T22:38:00.672Z,100.00
2022-10-07T22:40:29.360Z,100.00
2022-10-07T22:46:38.340Z,100.00
2022-10-07T22:49:06.628Z,100.00
2022-10-07T22:51:35.438Z,100.00
2022-10-07T22:54:04.779Z,100.00
2022-10-07T22:56:32.681Z,100.00
2022-10-07T22:59:00.888Z,100.00
2022-10-07T23:01:29.620Z,100.00
2022-10-07T23:03:58.764Z,100.00
2022-10-07T23:06:26.760Z,100.00
2022-10-07T23:08:55.239Z,100.00
2022-10-07T23:11:25.587Z,100.00
2022-10-07T23:13:54.673Z,100.00
2022-10-07T23:16:24.294Z,100.00
2022-10-07T23:18:53.790Z,100.00
2022-10-07T23:21:23.098Z,100.00
2022-10-07T23:23:53.261Z,100.00
2022-10-07T23:26:24.617Z,100.00
2022-10-07T23:28:53.463Z,100.00
2022-10-07T23:31:23.507Z,100.00
2022-10-07T23:33:52.881Z,100.00
2022-10-07T23:36:22.637Z,100.00
2022-10-07T23:38:51.974Z,100.00
2022-10-07T23:41:21.366Z,100.00
2022-10-07T23:43:50.899Z,100.00
2022-10-07T23:46:20.680Z,100.00
2022-10-07T23:48:49.588Z,100.00
2022-10-07T23:51:19.691Z,100.00
2022-10-07T23:53:48.261Z,100.00
2022-10-07T23:56:18.258Z,100.00
2022-10-07T23:58:46.429Z,100.00
